sensor_id;sensor_type;location;lat;lon;timestamp;P1;durP1;ratioP1;P2;durP2;ratioP2
12585;SDS011;6358;50.760;0.282;2022-12-13T00:00:48;2.57;;;2.30;;
12585;SDS011;6358;50.760;0.282;2022-12-13T00:03:14;3.30;;;2.60;;
12585;SDS011;6358;50.760;0.282;2022-12-13T00:05:43;4.23;;;2.33;;
12585;SDS011;6358;50.760;0.282;2022-12-13T00:08:10;3.03;;;2.47;;
12585;SDS011;6358;50.760;0.282;2022-12-13T00:10:36;3.17;;;2.50;;
12585;SDS011;6358;50.760;0.282;2022-12-13T00:13:02;3.13;;;2.37;;
12585;SDS011;6358;50.760;0.282;2022-12-13T00:15:28;2.70;;;2.20;;
12585;SDS011;6358;50.760;0.282;2022-12-13T00:17:54;2.37;;;2.10;;
12585;SDS011;6358;50.760;0.282;2022-12-13T00:20:20;2.43;;;2.23;;
12585;SDS011;6358;50.760;0.282;2022-12-13T00:22:46;2.60;;;2.30;;
12585;SDS011;6358;50.760;0.282;2022-12-13T00:25:12;2.97;;;2.13;;
12585;SDS011;6358;50.760;0.282;2022-12-13T00:27:38;2.70;;;2.30;;
12585;SDS011;6358;50.760;0.282;2022-12-13T00:30:05;2.40;;;2.20;;
12585;SDS011;6358;50.760;0.282;2022-12-13T00:32:31;3.43;;;2.30;;
12585;SDS011;6358;50.760;0.282;2022-12-13T00:34:57;3.40;;;2.80;;
12585;SDS011;6358;50.760;0.282;2022-12-13T00:37:23;3.00;;;2.50;;
12585;SDS011;6358;50.760;0.282;2022-12-13T00:39:49;2.67;;;2.40;;
12585;SDS011;6358;50.760;0.282;2022-12-13T00:42:16;3.10;;;2.37;;
12585;SDS011;6358;50.760;0.282;2022-12-13T00:44:42;3.40;;;2.43;;
12585;SDS011;6358;50.760;0.282;2022-12-13T00:47:08;2.97;;;2.13;;
12585;SDS011;6358;50.760;0.282;2022-12-13T00:49:34;3.30;;;2.43;;
12585;SDS011;6358;50.760;0.282;2022-12-13T00:52:00;3.50;;;2.30;;
12585;SDS011;6358;50.760;0.282;2022-12-13T00:54:26;2.83;;;2.20;;
12585;SDS011;6358;50.760;0.282;2022-12-13T00:56:52;2.50;;;2.30;;
12585;SDS011;6358;50.760;0.282;2022-12-13T00:59:19;2.87;;;2.50;;
12585;SDS011;6358;50.760;0.282;2022-12-13T01:01:45;2.83;;;2.23;;
12585;SDS011;6358;50.760;0.282;2022-12-13T01:04:11;2.53;;;2.33;;
12585;SDS011;6358;50.760;0.282;2022-12-13T01:06:39;3.00;;;2.20;;
12585;SDS011;6358;50.760;0.282;2022-12-13T01:09:06;2.50;;;2.30;;
12585;SDS011;6358;50.760;0.282;2022-12-13T01:11:34;3.60;;;2.47;;
12585;SDS011;6358;50.760;0.282;2022-12-13T01:14:00;3.40;;;2.20;;
12585;SDS011;6358;50.760;0.282;2022-12-13T01:16:26;2.60;;;2.00;;
12585;SDS011;6358;50.760;0.282;2022-12-13T01:18:52;3.50;;;2.20;;
12585;SDS011;6358;50.760;0.282;2022-12-13T01:21:19;2.80;;;2.20;;
12585;SDS011;6358;50.760;0.282;2022-12-13T01:23:46;3.23;;;2.60;;
12585;SDS011;6358;50.760;0.282;2022-12-13T01:26:13;2.93;;;2.10;;
12585;SDS011;6358;50.760;0.282;2022-12-13T01:28:40;2.80;;;2.30;;
12585;SDS011;6358;50.760;0.282;2022-12-13T01:31:07;2.77;;;2.30;;
12585;SDS011;6358;50.760;0.282;2022-12-13T01:33:33;5.10;;;2.60;;
12585;SDS011;6358;50.760;0.282;2022-12-13T01:36:00;3.70;;;2.40;;
12585;SDS011;6358;50.760;0.282;2022-12-13T01:38:27;2.73;;;2.30;;
12585;SDS011;6358;50.760;0.282;2022-12-13T01:40:53;2.90;;;2.10;;
12585;SDS011;6358;50.760;0.282;2022-12-13T01:44:04;2.90;;;2.60;;
12585;SDS011;6358;50.760;0.282;2022-12-13T01:46:12;4.07;;;2.30;;
12585;SDS011;6358;50.760;0.282;2022-12-13T01:51:18;3.47;;;2.40;;
12585;SDS011;6358;50.760;0.282;2022-12-13T01:53:46;4.17;;;2.27;;
12585;SDS011;6358;50.760;0.282;2022-12-13T01:56:20;4.33;;;2.30;;
12585;SDS011;6358;50.760;0.282;2022-12-13T01:58:47;2.43;;;2.07;;
12585;SDS011;6358;50.760;0.282;2022-12-13T02:01:15;2.60;;;2.20;;
12585;SDS011;6358;50.760;0.282;2022-12-13T02:03:41;3.70;;;2.10;;
12585;SDS011;6358;50.760;0.282;2022-12-13T02:06:50;2.60;;;2.20;;
12585;SDS011;6358;50.760;0.282;2022-12-13T02:08:57;3.53;;;2.40;;
12585;SDS011;6358;50.760;0.282;2022-12-13T02:11:25;2.83;;;2.40;;
12585;SDS011;6358;50.760;0.282;2022-12-13T02:13:52;2.90;;;2.10;;
12585;SDS011;6358;50.760;0.282;2022-12-13T02:26:41;4.20;;;2.50;;
12585;SDS011;6358;50.760;0.282;2022-12-13T02:29:48;4.10;;;2.33;;
12585;SDS011;6358;50.760;0.282;2022-12-13T02:34:35;2.30;;;2.10;;
12585;SDS011;6358;50.760;0.282;2022-12-13T02:37:23;3.07;;;2.27;;
12585;SDS011;6358;50.760;0.282;2022-12-13T02:40:00;4.27;;;2.40;;
12585;SDS011;6358;50.760;0.282;2022-12-13T02:42:34;2.20;;;2.00;;
12585;SDS011;6358;50.760;0.282;2022-12-13T02:45:04;2.80;;;2.03;;
12585;SDS011;6358;50.760;0.282;2022-12-13T02:47:31;2.63;;;2.10;;
12585;SDS011;6358;50.760;0.282;2022-12-13T02:49:59;3.00;;;2.00;;
12585;SDS011;6358;50.760;0.282;2022-12-13T02:52:26;3.27;;;2.30;;
12585;SDS011;6358;50.760;0.282;2022-12-13T02:54:54;3.63;;;2.40;;
12585;SDS011;6358;50.760;0.282;2022-12-13T02:57:30;2.93;;;2.30;;
12585;SDS011;6358;50.760;0.282;2022-12-13T02:59:57;4.07;;;2.50;;
12585;SDS011;6358;50.760;0.282;2022-12-13T03:10:18;4.10;;;2.30;;
12585;SDS011;6358;50.760;0.282;2022-12-13T03:15:32;3.63;;;2.70;;
12585;SDS011;6358;50.760;0.282;2022-12-13T03:18:04;4.43;;;2.40;;
12585;SDS011;6358;50.760;0.282;2022-12-13T03:20:39;3.40;;;2.53;;
12585;SDS011;6358;50.760;0.282;2022-12-13T03:23:09;3.77;;;2.60;;
12585;SDS011;6358;50.760;0.282;2022-12-13T03:25:35;2.63;;;2.00;;
12585;SDS011;6358;50.760;0.282;2022-12-13T03:28:01;5.07;;;2.70;;
12585;SDS011;6358;50.760;0.282;2022-12-13T03:30:28;3.30;;;2.53;;
12585;SDS011;6358;50.760;0.282;2022-12-13T03:32:55;4.53;;;2.90;;
12585;SDS011;6358;50.760;0.282;2022-12-13T03:35:21;3.97;;;2.60;;
12585;SDS011;6358;50.760;0.282;2022-12-13T03:37:47;3.60;;;2.67;;
12585;SDS011;6358;50.760;0.282;2022-12-13T03:40:13;3.07;;;2.60;;
12585;SDS011;6358;50.760;0.282;2022-12-13T03:42:39;3.53;;;2.50;;
12585;SDS011;6358;50.760;0.282;2022-12-13T03:45:05;3.97;;;2.43;;
12585;SDS011;6358;50.760;0.282;2022-12-13T03:47:32;3.00;;;2.70;;
12585;SDS011;6358;50.760;0.282;2022-12-13T03:49:58;4.33;;;2.90;;
12585;SDS011;6358;50.760;0.282;2022-12-13T03:52:24;4.40;;;2.57;;
12585;SDS011;6358;50.760;0.282;2022-12-13T03:54:50;4.07;;;2.93;;
12585;SDS011;6358;50.760;0.282;2022-12-13T03:57:16;5.20;;;2.80;;
12585;SDS011;6358;50.760;0.282;2022-12-13T03:59:42;3.43;;;2.57;;
12585;SDS011;6358;50.760;0.282;2022-12-13T04:02:08;4.53;;;2.50;;
12585;SDS011;6358;50.760;0.282;2022-12-13T04:04:34;3.33;;;2.57;;
12585;SDS011;6358;50.760;0.282;2022-12-13T04:07:00;4.23;;;2.67;;
12585;SDS011;6358;50.760;0.282;2022-12-13T04:09:26;3.70;;;2.77;;
12585;SDS011;6358;50.760;0.282;2022-12-13T04:11:52;6.83;;;3.10;;
12585;SDS011;6358;50.760;0.282;2022-12-13T04:14:37;3.47;;;2.63;;
12585;SDS011;6358;50.760;0.282;2022-12-13T04:17:03;3.37;;;2.40;;
12585;SDS011;6358;50.760;0.282;2022-12-13T04:19:29;3.83;;;2.67;;
12585;SDS011;6358;50.760;0.282;2022-12-13T04:21:55;4.80;;;2.80;;
12585;SDS011;6358;50.760;0.282;2022-12-13T04:24:21;3.27;;;2.47;;
12585;SDS011;6358;50.760;0.282;2022-12-13T04:26:48;5.40;;;2.83;;
12585;SDS011;6358;50.760;0.282;2022-12-13T04:29:14;3.63;;;2.57;;
12585;SDS011;6358;50.760;0.282;2022-12-13T04:31:40;3.37;;;2.60;;
12585;SDS011;6358;50.760;0.282;2022-12-13T04:34:06;3.90;;;2.53;;
12585;SDS011;6358;50.760;0.282;2022-12-13T04:36:32;3.87;;;2.53;;
12585;SDS011;6358;50.760;0.282;2022-12-13T04:38:59;3.57;;;2.67;;
12585;SDS011;6358;50.760;0.282;2022-12-13T04:41:26;3.83;;;2.40;;
12585;SDS011;6358;50.760;0.282;2022-12-13T04:43:52;3.00;;;2.47;;
12585;SDS011;6358;50.760;0.282;2022-12-13T04:46:19;4.07;;;2.70;;
12585;SDS011;6358;50.760;0.282;2022-12-13T04:48:45;3.20;;;2.60;;
12585;SDS011;6358;50.760;0.282;2022-12-13T04:51:11;4.37;;;2.93;;
12585;SDS011;6358;50.760;0.282;2022-12-13T04:53:38;3.37;;;2.60;;
12585;SDS011;6358;50.760;0.282;2022-12-13T04:56:04;3.30;;;2.70;;
12585;SDS011;6358;50.760;0.282;2022-12-13T04:58:30;4.30;;;2.90;;
12585;SDS011;6358;50.760;0.282;2022-12-13T05:00:56;4.30;;;2.70;;
12585;SDS011;6358;50.760;0.282;2022-12-13T05:03:22;3.37;;;2.67;;
12585;SDS011;6358;50.760;0.282;2022-12-13T05:05:49;3.47;;;2.30;;
12585;SDS011;6358;50.760;0.282;2022-12-13T05:08:15;5.30;;;3.30;;
12585;SDS011;6358;50.760;0.282;2022-12-13T05:10:41;4.37;;;2.60;;
12585;SDS011;6358;50.760;0.282;2022-12-13T05:13:07;4.77;;;2.90;;
12585;SDS011;6358;50.760;0.282;2022-12-13T05:15:33;3.67;;;2.63;;
12585;SDS011;6358;50.760;0.282;2022-12-13T05:18:03;4.00;;;2.60;;
12585;SDS011;6358;50.760;0.282;2022-12-13T05:20:30;3.87;;;2.80;;
12585;SDS011;6358;50.760;0.282;2022-12-13T05:22:56;5.17;;;2.80;;
12585;SDS011;6358;50.760;0.282;2022-12-13T05:25:23;5.43;;;3.00;;
12585;SDS011;6358;50.760;0.282;2022-12-13T05:27:49;4.77;;;3.27;;
12585;SDS011;6358;50.760;0.282;2022-12-13T05:30:15;4.47;;;2.90;;
12585;SDS011;6358;50.760;0.282;2022-12-13T05:32:41;5.17;;;3.10;;
12585;SDS011;6358;50.760;0.282;2022-12-13T05:35:07;3.33;;;2.70;;
12585;SDS011;6358;50.760;0.282;2022-12-13T05:37:34;4.73;;;2.87;;
12585;SDS011;6358;50.760;0.282;2022-12-13T05:40:00;3.77;;;2.70;;
12585;SDS011;6358;50.760;0.282;2022-12-13T05:42:26;4.30;;;2.73;;
12585;SDS011;6358;50.760;0.282;2022-12-13T05:44:52;3.70;;;2.70;;
12585;SDS011;6358;50.760;0.282;2022-12-13T05:47:18;6.00;;;3.10;;
12585;SDS011;6358;50.760;0.282;2022-12-13T05:49:44;4.37;;;2.70;;
12585;SDS011;6358;50.760;0.282;2022-12-13T05:52:14;5.37;;;3.07;;
12585;SDS011;6358;50.760;0.282;2022-12-13T05:54:40;5.90;;;3.17;;
12585;SDS011;6358;50.760;0.282;2022-12-13T05:57:07;4.17;;;2.70;;
12585;SDS011;6358;50.760;0.282;2022-12-13T05:59:33;4.60;;;2.90;;
12585;SDS011;6358;50.760;0.282;2022-12-13T06:01:59;6.67;;;3.20;;
12585;SDS011;6358;50.760;0.282;2022-12-13T06:04:25;5.20;;;3.00;;
12585;SDS011;6358;50.760;0.282;2022-12-13T06:06:51;4.13;;;2.90;;
12585;SDS011;6358;50.760;0.282;2022-12-13T06:09:17;4.00;;;2.77;;
12585;SDS011;6358;50.760;0.282;2022-12-13T06:11:44;4.87;;;3.20;;
12585;SDS011;6358;50.760;0.282;2022-12-13T06:14:10;3.53;;;3.17;;
12585;SDS011;6358;50.760;0.282;2022-12-13T06:16:36;4.97;;;3.13;;
12585;SDS011;6358;50.760;0.282;2022-12-13T06:19:03;4.53;;;3.10;;
12585;SDS011;6358;50.760;0.282;2022-12-13T06:21:30;4.63;;;2.70;;
12585;SDS011;6358;50.760;0.282;2022-12-13T06:23:56;3.33;;;3.00;;
12585;SDS011;6358;50.760;0.282;2022-12-13T06:26:22;4.27;;;3.03;;
12585;SDS011;6358;50.760;0.282;2022-12-13T06:28:48;4.60;;;3.10;;
12585;SDS011;6358;50.760;0.282;2022-12-13T06:31:14;4.73;;;3.00;;
12585;SDS011;6358;50.760;0.282;2022-12-13T06:33:40;4.60;;;3.30;;
12585;SDS011;6358;50.760;0.282;2022-12-13T06:36:06;4.27;;;3.07;;
12585;SDS011;6358;50.760;0.282;2022-12-13T06:38:33;4.93;;;2.90;;
12585;SDS011;6358;50.760;0.282;2022-12-13T06:41:06;5.37;;;3.27;;
12585;SDS011;6358;50.760;0.282;2022-12-13T06:43:32;3.63;;;2.77;;
12585;SDS011;6358;50.760;0.282;2022-12-13T06:45:58;5.10;;;2.87;;
12585;SDS011;6358;50.760;0.282;2022-12-13T06:48:24;3.30;;;2.87;;
12585;SDS011;6358;50.760;0.282;2022-12-13T06:50:51;4.00;;;2.90;;
12585;SDS011;6358;50.760;0.282;2022-12-13T06:53:17;4.13;;;2.83;;
12585;SDS011;6358;50.760;0.282;2022-12-13T06:55:43;4.57;;;3.17;;
12585;SDS011;6358;50.760;0.282;2022-12-13T06:58:09;3.97;;;3.10;;
12585;SDS011;6358;50.760;0.282;2022-12-13T07:00:35;5.13;;;3.23;;
12585;SDS011;6358;50.760;0.282;2022-12-13T07:03:01;3.70;;;2.83;;
12585;SDS011;6358;50.760;0.282;2022-12-13T07:05:27;4.47;;;2.90;;
12585;SDS011;6358;50.760;0.282;2022-12-13T07:07:53;3.53;;;3.03;;
12585;SDS011;6358;50.760;0.282;2022-12-13T07:10:19;2.90;;;2.40;;
12585;SDS011;6358;50.760;0.282;2022-12-13T07:12:46;3.40;;;2.97;;
12585;SDS011;6358;50.760;0.282;2022-12-13T07:15:12;5.53;;;2.90;;
12585;SDS011;6358;50.760;0.282;2022-12-13T07:17:38;4.23;;;2.93;;
12585;SDS011;6358;50.760;0.282;2022-12-13T07:20:06;6.03;;;3.30;;
12585;SDS011;6358;50.760;0.282;2022-12-13T07:22:33;4.20;;;2.90;;
12585;SDS011;6358;50.760;0.282;2022-12-13T07:24:59;4.57;;;2.70;;
12585;SDS011;6358;50.760;0.282;2022-12-13T07:27:27;4.20;;;3.00;;
12585;SDS011;6358;50.760;0.282;2022-12-13T07:29:53;6.07;;;3.00;;
12585;SDS011;6358;50.760;0.282;2022-12-13T07:32:19;4.77;;;3.03;;
12585;SDS011;6358;50.760;0.282;2022-12-13T07:34:45;5.73;;;3.07;;
12585;SDS011;6358;50.760;0.282;2022-12-13T07:37:11;4.30;;;2.67;;
12585;SDS011;6358;50.760;0.282;2022-12-13T07:39:37;4.03;;;2.77;;
12585;SDS011;6358;50.760;0.282;2022-12-13T07:42:03;3.93;;;2.80;;
12585;SDS011;6358;50.760;0.282;2022-12-13T07:44:29;3.50;;;2.50;;
12585;SDS011;6358;50.760;0.282;2022-12-13T07:46:55;3.83;;;2.83;;
12585;SDS011;6358;50.760;0.282;2022-12-13T07:49:21;3.20;;;2.73;;
12585;SDS011;6358;50.760;0.282;2022-12-13T07:51:47;3.77;;;2.70;;
12585;SDS011;6358;50.760;0.282;2022-12-13T07:54:13;3.80;;;2.50;;
12585;SDS011;6358;50.760;0.282;2022-12-13T07:56:40;3.13;;;2.50;;
12585;SDS011;6358;50.760;0.282;2022-12-13T07:59:06;2.80;;;2.50;;
12585;SDS011;6358;50.760;0.282;2022-12-13T08:01:32;4.03;;;2.67;;
12585;SDS011;6358;50.760;0.282;2022-12-13T08:04:01;3.17;;;2.50;;
12585;SDS011;6358;50.760;0.282;2022-12-13T08:06:27;3.77;;;2.73;;
12585;SDS011;6358;50.760;0.282;2022-12-13T08:08:56;4.00;;;2.80;;
12585;SDS011;6358;50.760;0.282;2022-12-13T08:11:22;3.23;;;2.73;;
12585;SDS011;6358;50.760;0.282;2022-12-13T08:13:49;3.67;;;2.57;;
12585;SDS011;6358;50.760;0.282;2022-12-13T08:16:15;3.67;;;2.77;;
12585;SDS011;6358;50.760;0.282;2022-12-13T08:18:42;3.70;;;2.77;;
12585;SDS011;6358;50.760;0.282;2022-12-13T08:21:09;3.17;;;2.50;;
12585;SDS011;6358;50.760;0.282;2022-12-13T08:23:35;3.90;;;2.73;;
12585;SDS011;6358;50.760;0.282;2022-12-13T08:26:01;3.20;;;2.53;;
12585;SDS011;6358;50.760;0.282;2022-12-13T08:28:28;3.10;;;2.43;;
12585;SDS011;6358;50.760;0.282;2022-12-13T08:31:00;3.37;;;2.50;;
12585;SDS011;6358;50.760;0.282;2022-12-13T08:33:27;3.47;;;2.70;;
12585;SDS011;6358;50.760;0.282;2022-12-13T08:35:54;3.57;;;2.80;;
12585;SDS011;6358;50.760;0.282;2022-12-13T08:38:21;4.40;;;2.50;;
12585;SDS011;6358;50.760;0.282;2022-12-13T08:40:47;5.03;;;3.10;;
12585;SDS011;6358;50.760;0.282;2022-12-13T08:43:13;4.10;;;2.50;;
12585;SDS011;6358;50.760;0.282;2022-12-13T08:45:39;4.37;;;2.90;;
12585;SDS011;6358;50.760;0.282;2022-12-13T08:48:06;3.10;;;2.63;;
12585;SDS011;6358;50.760;0.282;2022-12-13T08:50:32;3.93;;;2.70;;
12585;SDS011;6358;50.760;0.282;2022-12-13T08:52:58;3.30;;;2.67;;
12585;SDS011;6358;50.760;0.282;2022-12-13T08:55:25;3.80;;;2.80;;
12585;SDS011;6358;50.760;0.282;2022-12-13T08:57:51;4.20;;;2.70;;
12585;SDS011;6358;50.760;0.282;2022-12-13T09:00:17;3.57;;;2.70;;
12585;SDS011;6358;50.760;0.282;2022-12-13T09:02:44;3.90;;;2.57;;
12585;SDS011;6358;50.760;0.282;2022-12-13T09:05:10;3.67;;;2.93;;
12585;SDS011;6358;50.760;0.282;2022-12-13T09:07:37;4.07;;;2.50;;
12585;SDS011;6358;50.760;0.282;2022-12-13T09:10:07;4.87;;;2.40;;
12585;SDS011;6358;50.760;0.282;2022-12-13T09:12:33;2.93;;;2.63;;
12585;SDS011;6358;50.760;0.282;2022-12-13T09:15:00;4.00;;;2.63;;
12585;SDS011;6358;50.760;0.282;2022-12-13T09:17:26;3.50;;;2.77;;
12585;SDS011;6358;50.760;0.282;2022-12-13T09:19:52;3.20;;;2.40;;
12585;SDS011;6358;50.760;0.282;2022-12-13T09:22:18;3.47;;;2.90;;
12585;SDS011;6358;50.760;0.282;2022-12-13T09:24:45;3.27;;;2.43;;
12585;SDS011;6358;50.760;0.282;2022-12-13T09:27:11;3.53;;;2.57;;
12585;SDS011;6358;50.760;0.282;2022-12-13T09:29:37;3.23;;;2.40;;
12585;SDS011;6358;50.760;0.282;2022-12-13T09:32:03;3.93;;;2.77;;
12585;SDS011;6358;50.760;0.282;2022-12-13T09:34:30;3.77;;;2.53;;
12585;SDS011;6358;50.760;0.282;2022-12-13T09:36:59;3.13;;;2.40;;
12585;SDS011;6358;50.760;0.282;2022-12-13T09:39:25;3.00;;;2.53;;
12585;SDS011;6358;50.760;0.282;2022-12-13T09:41:53;3.47;;;2.57;;
12585;SDS011;6358;50.760;0.282;2022-12-13T09:44:33;3.13;;;2.50;;
12585;SDS011;6358;50.760;0.282;2022-12-13T09:47:02;2.60;;;2.40;;
12585;SDS011;6358;50.760;0.282;2022-12-13T09:49:39;3.43;;;2.60;;
12585;SDS011;6358;50.760;0.282;2022-12-13T09:52:08;2.90;;;2.43;;
12585;SDS011;6358;50.760;0.282;2022-12-13T09:54:37;3.00;;;2.43;;
12585;SDS011;6358;50.760;0.282;2022-12-13T09:57:08;3.83;;;2.50;;
12585;SDS011;6358;50.760;0.282;2022-12-13T09:59:40;2.93;;;2.63;;
12585;SDS011;6358;50.760;0.282;2022-12-13T10:02:17;3.20;;;2.77;;
12585;SDS011;6358;50.760;0.282;2022-12-13T10:04:46;2.60;;;2.40;;
12585;SDS011;6358;50.760;0.282;2022-12-13T10:07:21;3.20;;;2.67;;
12585;SDS011;6358;50.760;0.282;2022-12-13T10:09:49;3.27;;;2.60;;
12585;SDS011;6358;50.760;0.282;2022-12-13T10:12:18;3.07;;;2.50;;
12585;SDS011;6358;50.760;0.282;2022-12-13T10:14:47;3.30;;;2.53;;
12585;SDS011;6358;50.760;0.282;2022-12-13T10:17:15;3.13;;;2.80;;
12585;SDS011;6358;50.760;0.282;2022-12-13T10:19:44;2.90;;;2.53;;
12585;SDS011;6358;50.760;0.282;2022-12-13T10:22:12;3.47;;;2.47;;
12585;SDS011;6358;50.760;0.282;2022-12-13T10:24:48;3.00;;;2.30;;
12585;SDS011;6358;50.760;0.282;2022-12-13T10:27:17;2.47;;;2.27;;
12585;SDS011;6358;50.760;0.282;2022-12-13T10:32:29;2.90;;;2.53;;
12585;SDS011;6358;50.760;0.282;2022-12-13T10:34:58;3.73;;;2.43;;
12585;SDS011;6358;50.760;0.282;2022-12-13T10:39:50;2.80;;;2.50;;
12585;SDS011;6358;50.760;0.282;2022-12-13T10:42:17;2.73;;;2.53;;
12585;SDS011;6358;50.760;0.282;2022-12-13T10:44:44;2.70;;;2.30;;
12585;SDS011;6358;50.760;0.282;2022-12-13T10:49:46;2.60;;;2.40;;
12585;SDS011;6358;50.760;0.282;2022-12-13T10:52:34;3.30;;;2.47;;
12585;SDS011;6358;50.760;0.282;2022-12-13T10:55:03;3.90;;;2.50;;
12585;SDS011;6358;50.760;0.282;2022-12-13T10:57:30;3.37;;;2.53;;
12585;SDS011;6358;50.760;0.282;2022-12-13T10:59:57;5.60;;;3.10;;
12585;SDS011;6358;50.760;0.282;2022-12-13T11:04:55;2.83;;;2.30;;
12585;SDS011;6358;50.760;0.282;2022-12-13T11:07:29;3.87;;;2.53;;
12585;SDS011;6358;50.760;0.282;2022-12-13T11:09:56;7.50;;;3.10;;
12585;SDS011;6358;50.760;0.282;2022-12-13T11:12:23;5.03;;;2.77;;
12585;SDS011;6358;50.760;0.282;2022-12-13T11:14:55;4.17;;;2.60;;
12585;SDS011;6358;50.760;0.282;2022-12-13T11:17:26;5.00;;;2.53;;
12585;SDS011;6358;50.760;0.282;2022-12-13T11:19:54;7.47;;;2.87;;
12585;SDS011;6358;50.760;0.282;2022-12-13T11:22:23;4.60;;;2.30;;
12585;SDS011;6358;50.760;0.282;2022-12-13T11:24:51;5.80;;;2.50;;
12585;SDS011;6358;50.760;0.282;2022-12-13T11:27:42;4.87;;;2.50;;
12585;SDS011;6358;50.760;0.282;2022-12-13T11:30:08;6.23;;;2.77;;
12585;SDS011;6358;50.760;0.282;2022-12-13T11:32:47;6.13;;;2.30;;
12585;SDS011;6358;50.760;0.282;2022-12-13T11:38:41;6.27;;;2.70;;
12585;SDS011;6358;50.760;0.282;2022-12-13T11:41:11;3.33;;;2.63;;
12585;SDS011;6358;50.760;0.282;2022-12-13T11:46:13;3.20;;;2.20;;
12585;SDS011;6358;50.760;0.282;2022-12-13T11:48:52;5.00;;;2.70;;
12585;SDS011;6358;50.760;0.282;2022-12-13T11:51:23;3.50;;;2.37;;
12585;SDS011;6358;50.760;0.282;2022-12-13T12:01:15;4.73;;;2.60;;
12585;SDS011;6358;50.760;0.282;2022-12-13T12:03:46;4.77;;;2.80;;
12585;SDS011;6358;50.760;0.282;2022-12-13T12:08:44;4.43;;;2.50;;
12585;SDS011;6358;50.760;0.282;2022-12-13T12:11:28;2.80;;;2.50;;
12585;SDS011;6358;50.760;0.282;2022-12-13T12:18:50;2.90;;;2.40;;
12585;SDS011;6358;50.760;0.282;2022-12-13T12:26:15;4.27;;;2.60;;
12585;SDS011;6358;50.760;0.282;2022-12-13T12:31:31;3.77;;;2.53;;
12585;SDS011;6358;50.760;0.282;2022-12-13T12:52:44;4.17;;;2.40;;
12585;SDS011;6358;50.760;0.282;2022-12-13T13:00:13;3.80;;;2.60;;
12585;SDS011;6358;50.760;0.282;2022-12-13T13:07:47;3.37;;;2.07;;
12585;SDS011;6358;50.760;0.282;2022-12-13T13:10:15;3.33;;;2.43;;
12585;SDS011;6358;50.760;0.282;2022-12-13T13:12:41;2.77;;;2.30;;
12585;SDS011;6358;50.760;0.282;2022-12-13T13:17:52;5.13;;;2.77;;
12585;SDS011;6358;50.760;0.282;2022-12-13T13:20:22;3.47;;;2.60;;
12585;SDS011;6358;50.760;0.282;2022-12-13T13:22:49;4.67;;;2.43;;
12585;SDS011;6358;50.760;0.282;2022-12-13T13:25:29;3.67;;;2.80;;
12585;SDS011;6358;50.760;0.282;2022-12-13T13:28:03;4.17;;;2.60;;
12585;SDS011;6358;50.760;0.282;2022-12-13T13:30:30;3.53;;;2.33;;
12585;SDS011;6358;50.760;0.282;2022-12-13T13:32:56;3.60;;;2.30;;
12585;SDS011;6358;50.760;0.282;2022-12-13T13:37:59;3.57;;;3.00;;
12585;SDS011;6358;50.760;0.282;2022-12-13T13:40:29;3.70;;;2.53;;
12585;SDS011;6358;50.760;0.282;2022-12-13T13:51:19;3.57;;;2.60;;
12585;SDS011;6358;50.760;0.282;2022-12-13T14:05:08;3.63;;;2.50;;
12585;SDS011;6358;50.760;0.282;2022-12-13T14:09:46;3.03;;;2.50;;
12585;SDS011;6358;50.760;0.282;2022-12-13T14:22:55;3.40;;;2.70;;
12585;SDS011;6358;50.760;0.282;2022-12-13T14:25:38;3.50;;;2.57;;
12585;SDS011;6358;50.760;0.282;2022-12-13T14:30:40;3.20;;;2.53;;
12585;SDS011;6358;50.760;0.282;2022-12-13T14:33:12;5.17;;;3.23;;
12585;SDS011;6358;50.760;0.282;2022-12-13T14:35:48;3.03;;;2.60;;
12585;SDS011;6358;50.760;0.282;2022-12-13T14:38:22;4.30;;;2.67;;
12585;SDS011;6358;50.760;0.282;2022-12-13T14:40:49;3.03;;;2.70;;
12585;SDS011;6358;50.760;0.282;2022-12-13T14:45:52;3.57;;;2.80;;
12585;SDS011;6358;50.760;0.282;2022-12-13T14:48:19;3.43;;;2.90;;
12585;SDS011;6358;50.760;0.282;2022-12-13T14:50:45;3.97;;;2.90;;
12585;SDS011;6358;50.760;0.282;2022-12-13T14:53:35;3.43;;;2.90;;
12585;SDS011;6358;50.760;0.282;2022-12-13T14:56:11;3.07;;;2.77;;
12585;SDS011;6358;50.760;0.282;2022-12-13T14:58:38;4.30;;;3.10;;
12585;SDS011;6358;50.760;0.282;2022-12-13T15:01:05;4.33;;;2.60;;
12585;SDS011;6358;50.760;0.282;2022-12-13T15:03:32;4.53;;;2.77;;
12585;SDS011;6358;50.760;0.282;2022-12-13T15:05:59;3.83;;;2.70;;
12585;SDS011;6358;50.760;0.282;2022-12-13T15:08:26;3.50;;;2.90;;
12585;SDS011;6358;50.760;0.282;2022-12-13T15:10:53;3.87;;;2.60;;
12585;SDS011;6358;50.760;0.282;2022-12-13T15:15:53;5.13;;;3.00;;
12585;SDS011;6358;50.760;0.282;2022-12-13T15:18:24;3.37;;;2.90;;
12585;SDS011;6358;50.760;0.282;2022-12-13T15:20:54;2.97;;;2.40;;
12585;SDS011;6358;50.760;0.282;2022-12-13T15:23:33;3.23;;;2.60;;
12585;SDS011;6358;50.760;0.282;2022-12-13T15:26:07;4.00;;;2.70;;
12585;SDS011;6358;50.760;0.282;2022-12-13T15:28:35;3.43;;;2.60;;
12585;SDS011;6358;50.760;0.282;2022-12-13T15:31:02;5.33;;;3.13;;
12585;SDS011;6358;50.760;0.282;2022-12-13T15:33:29;4.73;;;3.07;;
12585;SDS011;6358;50.760;0.282;2022-12-13T15:41:19;4.70;;;2.77;;
12585;SDS011;6358;50.760;0.282;2022-12-13T15:43:49;4.53;;;2.80;;
12585;SDS011;6358;50.760;0.282;2022-12-13T15:46:50;4.10;;;2.93;;
12585;SDS011;6358;50.760;0.282;2022-12-13T15:49:30;3.80;;;3.20;;
12585;SDS011;6358;50.760;0.282;2022-12-13T15:52:01;3.93;;;2.80;;
12585;SDS011;6358;50.760;0.282;2022-12-13T15:54:28;3.87;;;2.80;;
12585;SDS011;6358;50.760;0.282;2022-12-13T15:56:58;3.67;;;2.50;;
12585;SDS011;6358;50.760;0.282;2022-12-13T16:01:51;3.50;;;2.80;;
12585;SDS011;6358;50.760;0.282;2022-12-13T16:04:21;3.53;;;2.77;;
12585;SDS011;6358;50.760;0.282;2022-12-13T16:06:48;3.20;;;2.90;;
12585;SDS011;6358;50.760;0.282;2022-12-13T16:09:17;3.30;;;2.57;;
12585;SDS011;6358;50.760;0.282;2022-12-13T16:11:49;4.07;;;2.60;;
12585;SDS011;6358;50.760;0.282;2022-12-13T16:17:02;4.97;;;2.80;;
12585;SDS011;6358;50.760;0.282;2022-12-13T16:19:30;5.53;;;2.80;;
12585;SDS011;6358;50.760;0.282;2022-12-13T16:21:56;5.80;;;3.10;;
12585;SDS011;6358;50.760;0.282;2022-12-13T16:24:23;3.20;;;2.60;;
12585;SDS011;6358;50.760;0.282;2022-12-13T16:26:49;4.00;;;2.80;;
12585;SDS011;6358;50.760;0.282;2022-12-13T16:29:15;5.77;;;2.90;;
12585;SDS011;6358;50.760;0.282;2022-12-13T16:31:45;3.87;;;3.07;;
12585;SDS011;6358;50.760;0.282;2022-12-13T16:34:12;3.17;;;2.87;;
12585;SDS011;6358;50.760;0.282;2022-12-13T16:36:38;4.07;;;2.77;;
12585;SDS011;6358;50.760;0.282;2022-12-13T16:39:05;4.20;;;3.00;;
12585;SDS011;6358;50.760;0.282;2022-12-13T16:41:35;4.23;;;2.70;;
12585;SDS011;6358;50.760;0.282;2022-12-13T16:44:02;4.07;;;2.97;;
12585;SDS011;6358;50.760;0.282;2022-12-13T16:46:28;3.83;;;2.90;;
12585;SDS011;6358;50.760;0.282;2022-12-13T16:48:54;3.97;;;2.77;;
12585;SDS011;6358;50.760;0.282;2022-12-13T16:51:21;4.57;;;3.07;;
12585;SDS011;6358;50.760;0.282;2022-12-13T16:53:47;4.13;;;3.10;;
12585;SDS011;6358;50.760;0.282;2022-12-13T16:56:13;4.90;;;3.20;;
12585;SDS011;6358;50.760;0.282;2022-12-13T16:58:45;3.70;;;3.00;;
12585;SDS011;6358;50.760;0.282;2022-12-13T17:01:13;3.23;;;2.93;;
12585;SDS011;6358;50.760;0.282;2022-12-13T17:03:39;4.93;;;3.00;;
12585;SDS011;6358;50.760;0.282;2022-12-13T17:06:07;3.73;;;3.20;;
12585;SDS011;6358;50.760;0.282;2022-12-13T17:08:33;3.83;;;3.10;;
12585;SDS011;6358;50.760;0.282;2022-12-13T17:10:59;4.00;;;3.47;;
12585;SDS011;6358;50.760;0.282;2022-12-13T17:13:27;3.63;;;3.30;;
12585;SDS011;6358;50.760;0.282;2022-12-13T17:15:53;5.27;;;3.60;;
12585;SDS011;6358;50.760;0.282;2022-12-13T17:18:19;3.97;;;3.50;;
12585;SDS011;6358;50.760;0.282;2022-12-13T17:20:45;3.77;;;3.47;;
12585;SDS011;6358;50.760;0.282;2022-12-13T17:23:12;3.50;;;3.20;;
12585;SDS011;6358;50.760;0.282;2022-12-13T17:25:38;3.90;;;3.37;;
12585;SDS011;6358;50.760;0.282;2022-12-13T17:28:05;4.10;;;3.43;;
12585;SDS011;6358;50.760;0.282;2022-12-13T17:30:31;4.00;;;3.60;;
12585;SDS011;6358;50.760;0.282;2022-12-13T17:33:02;3.73;;;3.33;;
12585;SDS011;6358;50.760;0.282;2022-12-13T17:35:31;3.73;;;3.43;;